Unionville, MD (21792)

7:26 AM EDT on April 24, 2017 (GMT -0400)
Oak Orchard | | Change Station

Elev 350 ft 39.49 °N, 77.17 °W | Updated 25 minutes ago

Overcast
Overcast
49.4 °F
Feels Like 49 °F
N
0.5
Wind Variable Wind from ENE
Gusts 3.0 mph

Today
High -- | Low -- °F
--% Chance of Precip.
Yesterday
High -- | Low -- °F
Precip. -- in
Pressure 30.13 in
Visibility 7.0 miles
Clouds Overcast 9000 ft
Windchill 49 °F
Dew Point 48 °F
Humidity 94%
Rainfall 0.00 in
Snow Depth Not available.
6:18 AM 7:55 PM
Waning Crescent, 6% visible
METAR KFDK 241049Z COR 07004KT 7SM RA OVC090 11/11 A3013
Pressure 30.13 in
Visibility 7.0 miles
Clouds Overcast 9000 ft
Windchill 49 °F
Dew Point 48 °F
Humidity 94%
Rainfall 0.00 in
Snow Depth Not available.
6:18 AM 7:55 PM
Waning Crescent, 6% visible
METAR KFDK 241049Z COR 07004KT 7SM RA OVC090 11/11 A3013

Get Severe Weather Alerts

Thanks for signing up!

Be on the lookout for a verification email in your inbox.

You'll start receiving the daily forecast at 8 AM.

×

10-Day Weather Forecast

Almanac

Astronomy

Apr. 24, 2017 Rise Set
Actual Time
Civil Twilight
Nautical Twilight
Astronomical Twilight
Moon
Length of Visible Light
Length of Day
Tomorrow will be .
, % of the Moon is Illuminated

Today's Extremes

State Highs State Lows

Community

WunderPhotos

WunderBlog® & News

Nearby

Air Quality

  Air Quality AQ Index Pollutant
Not available.

Snow Depth

Station Depth Elevation

Earthquake Activity

City Distance Mag. Time & Date
Minimum magnitude displayed is 2.5.

Coastal Water Temperatures

Place Temperature

Stations

Nearby Weather Stations

Station Location Temp. Windchill Dew Point Humidity Wind Precip. Elev Updated Type
                   

Watches & Warnings

There are currently no watches in effect.